createdAt,value
2018-11-27T00:00:10.541Z,15.73
2018-11-27T00:02:38.759Z,16.47
2018-11-27T00:05:08.320Z,13.50
2018-11-27T00:07:36.724Z,14.53
2018-11-27T00:10:06.937Z,13.47
2018-11-27T00:12:35.163Z,13.37
2018-11-27T00:15:03.779Z,13.97
2018-11-27T00:17:31.988Z,12.70
2018-11-27T00:20:00.185Z,13.50
2018-11-27T00:22:28.392Z,14.30
2018-11-27T00:24:56.606Z,14.40
2018-11-27T00:27:24.828Z,13.80
2018-11-27T00:29:53.032Z,13.90
2018-11-27T00:32:21.230Z,14.50
2018-11-27T00:34:49.457Z,13.67
2018-11-27T00:37:17.675Z,12.93
2018-11-27T00:39:45.890Z,13.70
2018-11-27T00:42:14.121Z,13.60
2018-11-27T00:44:42.332Z,14.00
2018-11-27T00:47:10.545Z,13.30
2018-11-27T00:49:38.744Z,13.57
2018-11-27T00:52:06.958Z,12.37
2018-11-27T00:54:35.165Z,15.43
2018-11-27T00:57:03.372Z,12.23
2018-11-27T00:59:31.581Z,14.20
2018-11-27T01:01:59.797Z,13.30
2018-11-27T01:04:28.006Z,12.50
2018-11-27T01:06:56.221Z,13.93
2018-11-27T01:09:24.450Z,12.67
2018-11-27T01:11:52.661Z,13.70
2018-11-27T01:14:20.878Z,14.63
2018-11-27T01:16:49.096Z,14.10
2018-11-27T01:19:17.300Z,13.83
2018-11-27T01:21:45.516Z,12.23
2018-11-27T01:24:13.717Z,13.80
2018-11-27T01:26:41.924Z,11.90
2018-11-27T01:29:10.144Z,12.60
2018-11-27T01:31:38.350Z,11.80
2018-11-27T01:34:06.556Z,12.97
2018-11-27T01:36:34.787Z,11.40
2018-11-27T01:42:01.552Z,11.33
2018-11-27T01:44:29.759Z,12.93
2018-11-27T01:46:57.976Z,12.00
2018-11-27T01:49:26.176Z,12.13
2018-11-27T01:51:54.383Z,11.00
2018-11-27T01:54:22.578Z,10.60
2018-11-27T01:56:50.801Z,10.33
2018-11-27T01:59:19.004Z,10.70
2018-11-27T02:01:47.221Z,10.30
2018-11-27T02:04:15.425Z,9.57
2018-11-27T02:06:43.644Z,9.80
2018-11-27T02:09:11.848Z,9.47
2018-11-27T02:11:40.057Z,8.20
2018-11-27T02:14:08.252Z,9.50
2018-11-27T02:16:36.490Z,9.03
2018-11-27T02:19:04.795Z,10.00
2018-11-27T02:21:33.004Z,9.27
2018-11-27T02:24:01.198Z,9.70
2018-11-27T02:26:29.408Z,9.17
2018-11-27T02:28:57.625Z,9.00
2018-11-27T02:31:25.825Z,8.13
2018-11-27T02:33:54.093Z,7.47
2018-11-27T02:36:22.296Z,7.77
2018-11-27T02:38:50.483Z,6.87
2018-11-27T02:41:18.689Z,6.80
2018-11-27T02:43:46.892Z,6.93
2018-11-27T02:46:15.085Z,6.90
2018-11-27T02:48:43.297Z,6.23
2018-11-27T02:51:11.476Z,6.37
2018-11-27T02:53:39.680Z,7.37
2018-11-27T02:56:07.880Z,7.00
2018-11-27T02:58:36.080Z,7.80
2018-11-27T03:01:04.309Z,7.13
2018-11-27T03:03:32.525Z,7.20
2018-11-27T03:06:00.748Z,7.00
2018-11-27T03:08:28.953Z,6.20
2018-11-27T03:10:57.139Z,6.47
2018-11-27T03:13:25.341Z,7.20
2018-11-27T03:15:53.544Z,6.73
2018-11-27T03:18:21.742Z,7.83
2018-11-27T03:20:49.948Z,6.80
2018-11-27T03:23:18.144Z,6.97
2018-11-27T03:25:46.327Z,6.50
2018-11-27T03:28:14.623Z,8.13
2018-11-27T03:30:42.737Z,6.20
2018-11-27T03:33:10.940Z,7.37
2018-11-27T03:35:39.160Z,6.60
2018-11-27T03:38:07.381Z,6.43
2018-11-27T03:40:35.613Z,5.80
2018-11-27T03:43:03.880Z,6.20
2018-11-27T03:45:32.111Z,6.40
2018-11-27T03:48:00.341Z,6.70
2018-11-27T03:50:29.764Z,5.30
2018-11-27T03:52:58.045Z,6.10
2018-11-27T03:55:26.277Z,5.70
2018-11-27T03:57:54.549Z,4.80
2018-11-27T04:00:25.528Z,4.63
2018-11-27T04:03:01.489Z,5.27
2018-11-27T04:05:29.761Z,4.87
2018-11-27T04:07:57.995Z,5.37
2018-11-27T04:10:26.205Z,5.50
2018-11-27T04:12:54.431Z,5.20
2018-11-27T04:15:22.640Z,5.27
2018-11-27T04:17:50.873Z,4.80
2018-11-27T04:20:19.085Z,4.90
2018-11-27T04:22:47.320Z,5.90
2018-11-27T04:25:16.376Z,5.23
2018-11-27T04:27:45.177Z,4.97
2018-11-27T04:30:14.376Z,5.43
2018-11-27T04:32:42.732Z,5.00
2018-11-27T04:35:12.146Z,4.80
2018-11-27T04:37:40.376Z,4.87
2018-11-27T04:40:10.125Z,5.03
2018-11-27T04:42:38.342Z,5.60
2018-11-27T04:45:22.876Z,4.90
2018-11-27T04:47:51.125Z,5.57
2018-11-27T04:50:19.624Z,4.50
2018-11-27T04:52:47.922Z,5.30
2018-11-27T04:55:18.125Z,5.53
2018-11-27T04:57:47.291Z,5.20
2018-11-27T05:00:19.478Z,5.47
2018-11-27T05:02:47.705Z,5.67
2018-11-27T05:05:16.081Z,5.40
2018-11-27T05:07:44.303Z,5.13
2018-11-27T05:10:17.223Z,5.70
2018-11-27T05:12:45.506Z,5.00
2018-11-27T05:15:15.580Z,4.93
2018-11-27T05:17:48.012Z,4.97
2018-11-27T05:20:12.969Z,4.30
2018-11-27T05:22:41.252Z,5.10
2018-11-27T05:25:14.545Z,4.20
2018-11-27T05:27:44.042Z,4.60
2018-11-27T05:30:14.470Z,5.07
2018-11-27T05:32:42.692Z,5.50
2018-11-27T05:35:13.798Z,5.07
2018-11-27T05:37:42.764Z,6.30
2018-11-27T05:40:13.300Z,6.27
2018-11-27T05:42:41.531Z,5.90
2018-11-27T05:45:18.572Z,5.53
2018-11-27T05:47:46.818Z,5.20
2018-11-27T05:50:16.120Z,5.93
2018-11-27T05:52:44.377Z,5.20
2018-11-27T05:55:13.033Z,7.00
2018-11-27T05:57:41.778Z,5.90
2018-11-27T06:00:12.428Z,6.10
2018-11-27T06:02:40.647Z,5.33
2018-11-27T06:05:13.800Z,5.60
2018-11-27T06:07:42.007Z,6.27
2018-11-27T06:10:11.673Z,6.93
2018-11-27T06:12:39.884Z,6.00
2018-11-27T06:15:09.812Z,6.80
2018-11-27T06:17:38.027Z,5.40
2018-11-27T06:20:12.256Z,6.40
2018-11-27T06:22:40.521Z,5.80
2018-11-27T06:25:10.653Z,5.40
2018-11-27T06:27:38.856Z,6.20
2018-11-27T06:30:12.020Z,5.40
2018-11-27T06:32:40.223Z,5.17
2018-11-27T06:35:09.917Z,6.07
2018-11-27T06:37:38.217Z,6.00
2018-11-27T06:40:19.495Z,6.30
2018-11-27T06:42:47.724Z,6.07
2018-11-27T06:45:17.716Z,6.67
2018-11-27T06:47:46.948Z,6.47
2018-11-27T06:50:15.673Z,6.57
2018-11-27T06:52:43.903Z,6.30
2018-11-27T06:55:13.217Z,6.43
2018-11-27T06:57:41.442Z,7.40
2018-11-27T07:00:12.977Z,7.00
2018-11-27T07:02:41.207Z,7.13
2018-11-27T07:05:10.621Z,7.20
2018-11-27T07:07:38.985Z,7.07
2018-11-27T07:10:43.149Z,7.20
2018-11-27T07:13:15.685Z,6.97
2018-11-27T07:15:43.925Z,7.87
2018-11-27T07:18:12.160Z,7.70
2018-11-27T07:20:40.384Z,6.80
2018-11-27T07:23:08.610Z,7.10
2018-11-27T07:25:37.487Z,7.00
2018-11-27T07:28:05.821Z,7.67
2018-11-27T07:30:34.077Z,5.70
2018-11-27T07:33:02.295Z,6.60
2018-11-27T07:35:30.535Z,5.90
2018-11-27T07:37:58.777Z,6.07
2018-11-27T07:40:28.001Z,5.50
2018-11-27T07:42:59.434Z,4.63
2018-11-27T07:45:27.688Z,4.90
2018-11-27T07:47:55.924Z,5.10
2018-11-27T07:50:24.145Z,5.60
2018-11-27T07:52:52.371Z,5.20
2018-11-27T07:55:21.735Z,4.47
2018-11-27T07:57:50.797Z,5.70
2018-11-27T08:00:21.365Z,5.23
2018-11-27T08:02:53.657Z,5.47
2018-11-27T08:05:40.026Z,5.90
2018-11-27T08:08:10.651Z,4.97
2018-11-27T08:10:38.877Z,5.00
2018-11-27T08:13:07.825Z,5.47
2018-11-27T08:15:36.088Z,5.53
2018-11-27T08:18:04.331Z,5.40
2018-11-27T08:20:33.360Z,5.47
2018-11-27T08:23:01.702Z,5.27
2018-11-27T08:25:29.946Z,5.77
2018-11-27T08:27:58.194Z,5.70
2018-11-27T08:30:26.421Z,5.67
2018-11-27T08:32:55.377Z,6.30
2018-11-27T08:35:24.684Z,6.33
2018-11-27T08:37:53.971Z,6.10
2018-11-27T08:40:23.287Z,5.60
2018-11-27T08:42:51.615Z,6.33
2018-11-27T08:45:20.831Z,6.40
2018-11-27T08:47:49.848Z,6.90
2018-11-27T08:50:24.148Z,6.70
2018-11-27T08:52:54.394Z,6.30
2018-11-27T08:55:24.188Z,6.47
2018-11-27T08:57:52.558Z,7.33
2018-11-27T09:00:21.917Z,6.73
2018-11-27T09:02:50.209Z,6.23
2018-11-27T09:05:18.408Z,6.50
2018-11-27T09:07:47.116Z,7.03
2018-11-27T09:10:19.081Z,6.40
2018-11-27T09:12:47.315Z,6.60
2018-11-27T09:15:16.660Z,6.40
2018-11-27T09:17:47.501Z,6.40
2018-11-27T09:20:15.724Z,8.00
2018-11-27T09:22:43.973Z,9.43
2018-11-27T09:25:13.206Z,9.37
2018-11-27T09:27:42.247Z,12.93
2018-11-27T09:30:17.579Z,18.60
2018-11-27T09:32:45.834Z,18.43
2018-11-27T09:35:14.065Z,12.47
2018-11-27T09:37:42.272Z,8.57
2018-11-27T09:40:12.723Z,9.10
2018-11-27T09:42:41.008Z,7.60
2018-11-27T09:45:11.835Z,7.13
2018-11-27T09:47:40.604Z,5.00
2018-11-27T09:50:11.979Z,6.80
2018-11-27T09:52:40.230Z,6.10
2018-11-27T09:55:22.472Z,5.70
2018-11-27T09:57:50.670Z,6.10
2018-11-27T10:00:21.148Z,6.27
2018-11-27T10:02:49.944Z,5.07
2018-11-27T10:05:18.195Z,5.60
2018-11-27T10:07:46.413Z,5.97
2018-11-27T10:10:16.096Z,4.93
2018-11-27T10:12:44.295Z,4.60
2018-11-27T10:15:21.387Z,4.97
2018-11-27T10:17:51.788Z,4.47
2018-11-27T10:20:21.093Z,5.17
2018-11-27T10:22:49.312Z,5.20
2018-11-27T10:25:17.518Z,6.30
2018-11-27T10:27:45.819Z,6.20
2018-11-27T10:30:15.236Z,6.30
2018-11-27T10:32:43.472Z,6.40
2018-11-27T10:35:14.001Z,5.53
2018-11-27T10:37:42.234Z,6.83
2018-11-27T10:40:10.457Z,7.40
2018-11-27T10:42:38.708Z,6.60
2018-11-27T10:45:11.132Z,7.00
2018-11-27T10:47:39.349Z,8.30
2018-11-27T10:50:09.520Z,9.40
2018-11-27T10:52:38.526Z,8.27
2018-11-27T10:55:08.632Z,6.60
2018-11-27T10:57:36.849Z,7.03
2018-11-27T11:00:09.295Z,7.10
2018-11-27T11:02:37.513Z,7.27
2018-11-27T11:05:06.443Z,8.17
2018-11-27T11:07:34.654Z,8.23
2018-11-27T11:10:02.931Z,8.60
2018-11-27T11:12:31.155Z,8.67
2018-11-27T11:14:59.361Z,9.90
2018-11-27T11:17:27.569Z,10.60
2018-11-27T11:19:55.769Z,11.40
2018-11-27T11:22:24.000Z,11.40
2018-11-27T11:24:52.217Z,12.43
2018-11-27T11:27:20.429Z,10.73
2018-11-27T11:29:48.628Z,11.50
2018-11-27T11:32:16.844Z,12.30
2018-11-27T11:34:45.084Z,9.50
2018-11-27T11:37:13.321Z,10.97
2018-11-27T11:39:41.568Z,12.17
2018-11-27T11:42:09.801Z,10.27
2018-11-27T11:44:38.040Z,11.20
2018-11-27T11:47:06.549Z,10.70
2018-11-27T11:49:34.775Z,11.03
2018-11-27T11:52:03.022Z,13.13
2018-11-27T11:54:31.264Z,10.67
2018-11-27T11:56:59.497Z,10.80
2018-11-27T11:59:28.906Z,10.40
2018-11-27T12:01:55.981Z,11.30
2018-11-27T12:04:24.209Z,10.70
2018-11-27T12:06:52.440Z,10.67
2018-11-27T12:09:20.690Z,11.00
2018-11-27T12:11:48.921Z,10.03
2018-11-27T12:14:17.152Z,12.30
2018-11-27T12:16:45.399Z,11.73
2018-11-27T12:19:13.650Z,11.33
2018-11-27T12:21:41.876Z,12.43
2018-11-27T12:24:10.264Z,11.67
2018-11-27T12:26:38.508Z,12.17
2018-11-27T12:29:07.088Z,10.77
2018-11-27T12:31:36.412Z,10.90
2018-11-27T12:34:04.671Z,12.63
2018-11-27T12:36:32.931Z,13.10
2018-11-27T12:39:01.160Z,11.57
2018-11-27T12:41:29.407Z,11.97
2018-11-27T12:43:57.653Z,12.20
2018-11-27T12:46:25.885Z,13.57
2018-11-27T12:48:54.133Z,12.80
2018-11-27T12:51:22.348Z,13.93
2018-11-27T12:53:50.586Z,12.43
2018-11-27T12:56:18.812Z,12.00
2018-11-27T12:58:47.107Z,13.40
2018-11-27T13:01:15.323Z,13.63
2018-11-27T13:03:43.582Z,14.20
2018-11-27T13:06:11.818Z,12.30
2018-11-27T13:08:40.065Z,14.27
2018-11-27T13:11:11.463Z,14.60
2018-11-27T13:13:36.614Z,13.30
2018-11-27T13:16:04.875Z,13.50
2018-11-27T13:18:33.115Z,13.03
2018-11-27T13:21:01.384Z,13.73
2018-11-27T13:23:29.692Z,13.63
2018-11-27T13:25:58.197Z,12.40
2018-11-27T13:28:26.465Z,13.20
2018-11-27T13:30:58.992Z,13.83
2018-11-27T13:33:29.000Z,16.00
2018-11-27T13:35:57.250Z,15.97
2018-11-27T13:38:26.161Z,14.00
2018-11-27T13:40:53.773Z,11.57
2018-11-27T13:43:24.362Z,11.50
2018-11-27T13:45:52.755Z,11.80
2018-11-27T13:48:21.047Z,12.33
2018-11-27T13:50:49.325Z,11.63
2018-11-27T13:53:17.565Z,10.53
2018-11-27T13:55:45.876Z,12.20
2018-11-27T13:58:14.111Z,11.10
2018-11-27T14:00:42.349Z,10.93
2018-11-27T14:03:10.964Z,11.27
2018-11-27T14:05:38.880Z,11.63
2018-11-27T14:08:08.280Z,14.60
2018-11-27T14:10:37.931Z,13.60
2018-11-27T14:13:07.167Z,13.77
2018-11-27T14:15:35.493Z,14.13
2018-11-27T14:18:03.756Z,12.63
2018-11-27T14:20:32.165Z,12.23
2018-11-27T14:23:00.750Z,12.03
2018-11-27T14:25:28.993Z,13.40
2018-11-27T14:27:57.203Z,12.10
2018-11-27T14:30:25.981Z,13.80
2018-11-27T14:32:54.504Z,16.67
2018-11-27T14:35:23.699Z,14.57
2018-11-27T14:37:54.268Z,14.73
2018-11-27T14:40:23.745Z,13.07
2018-11-27T14:42:52.229Z,11.80
2018-11-27T14:45:21.965Z,11.03
2018-11-27T14:47:52.263Z,11.90
2018-11-27T14:50:20.806Z,11.70
2018-11-27T14:52:49.090Z,14.30
2018-11-27T14:55:21.125Z,13.20
2018-11-27T14:57:49.367Z,13.13
2018-11-27T15:00:19.158Z,13.07
2018-11-27T15:02:47.645Z,11.80
2018-11-27T15:05:26.216Z,11.60
2018-11-27T15:07:54.761Z,12.73
2018-11-27T15:10:29.831Z,12.70
2018-11-27T15:12:58.170Z,13.30
2018-11-27T15:15:26.723Z,13.67
2018-11-27T15:17:55.119Z,13.10
2018-11-27T15:20:23.798Z,13.80
2018-11-27T15:22:52.186Z,14.20
2018-11-27T15:25:20.521Z,14.80
2018-11-27T15:27:48.919Z,13.83
2018-11-27T15:30:35.756Z,14.90
2018-11-27T15:33:04.004Z,19.20
2018-11-27T15:35:32.243Z,17.63
2018-11-27T15:38:00.474Z,18.00
2018-11-27T15:40:29.673Z,20.10
2018-11-27T15:42:58.158Z,27.13
2018-11-27T15:45:28.391Z,39.33
2018-11-27T15:47:56.598Z,29.23
2018-11-27T15:50:24.841Z,24.00
2018-11-27T15:52:53.088Z,27.10
2018-11-27T15:55:28.560Z,18.93
2018-11-27T15:57:58.270Z,16.07
2018-11-27T16:00:26.492Z,14.73
2018-11-27T16:02:54.708Z,14.57
2018-11-27T16:05:22.920Z,14.53
2018-11-27T16:07:51.131Z,14.90
2018-11-27T16:10:19.756Z,12.70
2018-11-27T16:12:48.064Z,14.27
2018-11-27T16:15:17.653Z,12.60
2018-11-27T16:17:45.922Z,12.93
2018-11-27T16:20:15.243Z,15.50
2018-11-27T16:22:44.408Z,14.60
2018-11-27T16:25:13.713Z,13.70
2018-11-27T16:27:41.933Z,13.30
2018-11-27T16:30:12.619Z,13.50
2018-11-27T16:32:40.859Z,13.73
2018-11-27T16:35:10.004Z,14.80
2018-11-27T16:37:38.345Z,12.30
2018-11-27T16:40:10.327Z,13.37
2018-11-27T16:42:38.557Z,14.70
2018-11-27T16:45:09.136Z,19.90
2018-11-27T16:47:37.373Z,23.83
2018-11-27T16:50:06.118Z,28.73
2018-11-27T16:52:34.376Z,23.03
2018-11-27T16:55:02.600Z,17.40
2018-11-27T16:57:30.841Z,16.83
2018-11-27T16:59:59.084Z,15.60
2018-11-27T17:02:27.398Z,15.83
2018-11-27T17:04:55.648Z,15.80
2018-11-27T17:07:23.921Z,13.50
2018-11-27T17:09:52.135Z,14.90
2018-11-27T17:12:20.385Z,14.90
2018-11-27T17:14:48.635Z,14.17
2018-11-27T17:17:16.872Z,14.80
2018-11-27T17:19:45.133Z,13.57
2018-11-27T17:22:13.340Z,13.80
2018-11-27T17:24:41.584Z,14.60
2018-11-27T17:27:09.825Z,14.93
2018-11-27T17:29:38.065Z,16.27
2018-11-27T17:32:06.815Z,15.77
2018-11-27T17:34:35.060Z,15.63
2018-11-27T17:37:03.279Z,14.90
2018-11-27T17:39:31.515Z,16.63
2018-11-27T17:41:59.721Z,18.47
2018-11-27T17:44:28.619Z,17.23
2018-11-27T17:46:56.839Z,15.90
2018-11-27T17:49:25.073Z,15.43
2018-11-27T17:51:53.272Z,15.50
2018-11-27T17:54:21.487Z,17.00
2018-11-27T17:56:49.690Z,15.13
2018-11-27T17:59:17.946Z,13.83
2018-11-27T18:01:46.140Z,15.60
2018-11-27T18:04:14.349Z,12.60
2018-11-27T18:06:42.589Z,12.37
2018-11-27T18:09:10.826Z,15.63
2018-11-27T18:11:39.032Z,12.87
2018-11-27T18:14:07.284Z,17.77
2018-11-27T18:16:35.498Z,16.30
2018-11-27T18:19:03.711Z,13.33
2018-11-27T18:21:31.928Z,11.83
2018-11-27T18:24:00.158Z,11.30
2018-11-27T18:26:28.384Z,10.63
2018-11-27T18:28:56.614Z,11.27
2018-11-27T18:31:24.882Z,10.57
2018-11-27T18:33:53.100Z,9.93
2018-11-27T18:36:25.853Z,9.67
2018-11-27T18:38:49.543Z,8.90
2018-11-27T18:41:17.764Z,8.87
2018-11-27T18:43:45.970Z,8.67
2018-11-27T18:46:14.180Z,8.67
2018-11-27T18:48:42.400Z,11.67
2018-11-27T18:51:10.629Z,10.10
2018-11-27T18:53:38.830Z,9.37
2018-11-27T18:56:07.060Z,9.70
2018-11-27T18:58:35.281Z,9.90
2018-11-27T19:01:03.529Z,9.40
2018-11-27T19:03:31.734Z,8.03
2018-11-27T19:05:59.936Z,8.90
2018-11-27T19:08:28.136Z,10.17
2018-11-27T19:10:56.344Z,10.03
2018-11-27T19:13:24.527Z,9.57
2018-11-27T19:15:52.763Z,8.50
2018-11-27T19:18:22.416Z,10.40
2018-11-27T19:20:50.643Z,9.10
2018-11-27T19:23:19.973Z,9.67
2018-11-27T19:25:48.229Z,10.57
2018-11-27T19:28:16.470Z,9.90
2018-11-27T19:30:44.888Z,10.13
2018-11-27T19:33:13.166Z,11.90
2018-11-27T19:35:41.784Z,11.07
2018-11-27T19:38:11.690Z,12.47
2018-11-27T19:40:39.879Z,13.07
2018-11-27T19:43:08.072Z,10.83
2018-11-27T19:45:37.020Z,12.20
2018-11-27T19:48:06.613Z,10.03
2018-11-27T19:50:34.854Z,11.33
2018-11-27T19:53:03.241Z,10.80
2018-11-27T19:55:31.444Z,9.87
2018-11-27T19:57:59.624Z,11.60
2018-11-27T20:00:28.545Z,12.40
2018-11-27T20:02:56.854Z,11.50
2018-11-27T20:05:26.499Z,13.07
2018-11-27T20:07:54.685Z,11.87
2018-11-27T20:10:22.889Z,11.80
2018-11-27T20:12:51.076Z,13.20
2018-11-27T20:15:21.252Z,11.23
2018-11-27T20:17:50.164Z,11.33
2018-11-27T20:20:19.440Z,12.10
2018-11-27T20:22:47.641Z,12.77
2018-11-27T20:25:16.908Z,12.10
2018-11-27T20:27:51.398Z,13.10
2018-11-27T20:30:22.493Z,11.70
2018-11-27T20:32:52.428Z,11.60
2018-11-27T20:35:20.705Z,11.77
2018-11-27T20:37:50.292Z,10.37
2018-11-27T20:40:19.245Z,10.67
2018-11-27T20:42:47.496Z,13.03
2018-11-27T20:45:19.544Z,14.70
2018-11-27T20:47:48.427Z,14.07
2018-11-27T20:50:19.629Z,14.10
2018-11-27T20:52:47.835Z,14.50
2018-11-27T20:55:16.054Z,13.40
2018-11-27T20:57:48.788Z,13.10
2018-11-27T21:00:20.424Z,12.90
2018-11-27T21:02:48.711Z,13.87
2018-11-27T21:05:16.891Z,13.93
2018-11-27T21:07:45.093Z,13.40
2018-11-27T21:10:14.045Z,12.20
2018-11-27T21:12:42.993Z,13.23
2018-11-27T21:15:15.207Z,12.60
2018-11-27T21:17:43.405Z,11.80
2018-11-27T21:20:12.612Z,12.60
2018-11-27T21:22:40.908Z,11.10
2018-11-27T21:25:15.158Z,10.73
2018-11-27T21:27:44.797Z,14.00
2018-11-27T21:30:15.053Z,11.10
2018-11-27T21:32:43.415Z,10.90
2018-11-27T21:35:12.637Z,11.13
2018-11-27T21:37:40.915Z,11.60
2018-11-27T21:40:14.349Z,11.03
2018-11-27T21:42:42.571Z,12.10
2018-11-27T21:45:12.935Z,9.63
2018-11-27T21:47:41.208Z,10.50
2018-11-27T21:50:11.573Z,11.50
2018-11-27T21:52:39.754Z,9.37
2018-11-27T21:55:10.351Z,10.90
2018-11-27T21:57:38.535Z,9.90
2018-11-27T22:00:10.796Z,11.13
2018-11-27T22:02:39.089Z,10.73
2018-11-27T22:05:08.072Z,10.80
2018-11-27T22:07:36.395Z,11.23
2018-11-27T22:10:08.519Z,11.00
2018-11-27T22:12:36.705Z,12.20
2018-11-27T22:15:09.896Z,11.40
2018-11-27T22:17:38.100Z,11.00
2018-11-27T22:20:08.300Z,11.57
2018-11-27T22:22:36.516Z,10.77
2018-11-27T22:25:06.161Z,11.50
2018-11-27T22:27:34.352Z,11.30
2018-11-27T22:30:02.528Z,10.57
2018-11-27T22:32:30.721Z,12.53
2018-11-27T22:34:58.924Z,12.07
2018-11-27T22:37:27.132Z,11.70
2018-11-27T22:39:55.345Z,11.73
2018-11-27T22:42:23.547Z,12.70
2018-11-27T22:44:51.750Z,12.67
2018-11-27T22:47:19.969Z,10.63
2018-11-27T22:49:48.177Z,11.27
2018-11-27T22:52:16.396Z,11.70
2018-11-27T22:54:44.594Z,9.30
2018-11-27T22:57:12.812Z,10.20
2018-11-27T22:59:41.011Z,10.40
2018-11-27T23:02:09.222Z,10.67
2018-11-27T23:04:37.424Z,10.03
2018-11-27T23:07:05.639Z,9.80
2018-11-27T23:09:33.823Z,9.80
2018-11-27T23:12:02.089Z,10.50
2018-11-27T23:14:30.260Z,11.63
2018-11-27T23:16:58.469Z,11.07
2018-11-27T23:19:26.661Z,11.00
2018-11-27T23:21:54.867Z,10.90
2018-11-27T23:24:23.074Z,10.60
2018-11-27T23:26:51.279Z,9.20
2018-11-27T23:29:19.471Z,12.90
2018-11-27T23:31:47.717Z,12.70
2018-11-27T23:34:15.941Z,12.07
2018-11-27T23:36:44.157Z,11.80
2018-11-27T23:39:12.374Z,10.10
2018-11-27T23:41:40.564Z,8.70
2018-11-27T23:44:08.788Z,9.77
2018-11-27T23:46:36.993Z,9.17
2018-11-27T23:49:05.280Z,8.23
2018-11-27T23:51:33.484Z,8.27
2018-11-27T23:54:01.700Z,7.30
2018-11-27T23:56:29.897Z,7.80
2018-11-27T23:58:58.166Z,8.73
